createdAt,value
2017-11-28T00:01:55.800Z,3.20
2017-11-28T00:04:25.271Z,2.47
2017-11-28T00:06:55.687Z,2.47
2017-11-28T00:09:24.501Z,1.92
2017-11-28T00:11:54.040Z,2.25
2017-11-28T00:14:22.925Z,1.65
2017-11-28T00:16:51.937Z,1.33
2017-11-28T00:19:20.722Z,1.60
2017-11-28T00:21:50.165Z,2.15
2017-11-28T00:24:19.368Z,1.70
2017-11-28T00:26:49.784Z,2.12
2017-11-28T00:29:18.784Z,1.35
2017-11-28T00:31:49.253Z,1.98
2017-11-28T00:34:18.238Z,2.25
2017-11-28T00:36:47.215Z,1.90
2017-11-28T00:39:17.010Z,1.45
2017-11-28T00:41:46.176Z,2.33
2017-11-28T00:44:15.231Z,2.28
2017-11-28T00:46:44.242Z,4.00
2017-11-28T00:49:13.345Z,2.00
2017-11-28T00:51:42.547Z,2.00
2017-11-28T00:54:11.596Z,2.28
2017-11-28T00:56:42.003Z,2.17
2017-11-28T00:59:11.018Z,2.40
2017-11-28T01:01:40.684Z,2.00
2017-11-28T01:04:09.813Z,3.28
2017-11-28T01:06:39.711Z,2.58
2017-11-28T01:09:08.824Z,2.45
2017-11-28T01:11:38.288Z,2.45
2017-11-28T01:14:07.977Z,3.33
2017-11-28T01:16:36.941Z,2.78
2017-11-28T01:19:06.841Z,2.50
2017-11-28T01:21:36.007Z,1.87
2017-11-28T01:24:05.029Z,3.97
2017-11-28T01:26:33.992Z,1.62
2017-11-28T01:29:03.219Z,1.95
2017-11-28T01:31:32.181Z,2.55
2017-11-28T01:34:00.947Z,2.22
2017-11-28T01:36:30.060Z,3.03
2017-11-28T01:38:59.038Z,2.15
2017-11-28T01:41:28.018Z,2.20
2017-11-28T01:43:56.808Z,2.05
2017-11-28T01:46:25.676Z,1.95
2017-11-28T01:48:54.518Z,2.65
2017-11-28T01:51:23.556Z,2.15
2017-11-28T01:53:52.332Z,2.45
2017-11-28T01:56:21.189Z,2.30
2017-11-28T01:58:49.956Z,1.70
2017-11-28T02:01:18.756Z,5.05
2017-11-28T02:03:47.765Z,2.20
2017-11-28T02:06:16.542Z,3.12
2017-11-28T02:08:45.373Z,2.50
2017-11-28T02:11:14.395Z,2.20
2017-11-28T02:13:43.916Z,2.15
2017-11-28T02:16:12.829Z,1.95
2017-11-28T02:18:41.479Z,2.37
2017-11-28T02:21:10.822Z,2.00
2017-11-28T02:23:39.602Z,2.47
2017-11-28T02:26:08.543Z,2.50
2017-11-28T02:28:37.931Z,4.05
2017-11-28T02:31:06.536Z,2.40
2017-11-28T02:33:35.353Z,1.95
2017-11-28T02:36:04.123Z,2.25
2017-11-28T02:38:33.648Z,2.78
2017-11-28T02:41:13.492Z,1.90
2017-11-28T02:43:43.133Z,2.65
2017-11-28T02:46:22.905Z,3.35
2017-11-28T02:51:43.838Z,2.58
2017-11-28T02:54:12.627Z,4.50
2017-11-28T02:56:41.397Z,2.40
2017-11-28T02:59:10.204Z,2.80
2017-11-28T03:01:43.177Z,3.10
2017-11-28T03:04:11.992Z,2.28
2017-11-28T03:06:40.777Z,3.95
2017-11-28T03:09:25.185Z,3.03
2017-11-28T03:11:53.956Z,2.37
2017-11-28T03:14:24.551Z,1.98
2017-11-28T03:16:53.355Z,1.90
2017-11-28T03:19:31.803Z,2.47
2017-11-28T03:25:15.088Z,4.07
2017-11-28T03:27:44.480Z,1.70
2017-11-28T03:30:22.929Z,1.80
2017-11-28T03:32:51.495Z,2.40
2017-11-28T03:35:19.859Z,1.33
2017-11-28T03:37:49.600Z,1.75
2017-11-28T03:40:18.169Z,1.67
2017-11-28T03:42:47.471Z,1.70
2017-11-28T03:45:26.790Z,2.05
2017-11-28T03:47:55.346Z,1.20
2017-11-28T03:50:24.901Z,2.33
2017-11-28T03:52:53.741Z,2.40
2017-11-28T03:55:23.299Z,2.17
2017-11-28T03:57:52.251Z,2.55
2017-11-28T04:00:36.011Z,2.20
2017-11-28T04:03:04.826Z,2.40
2017-11-28T04:05:34.151Z,2.10
2017-11-28T04:08:03.207Z,1.95
2017-11-28T04:10:33.095Z,2.00
2017-11-28T04:13:01.867Z,2.50
2017-11-28T04:15:30.690Z,2.67
2017-11-28T04:18:00.255Z,2.40
2017-11-28T04:20:29.220Z,1.95
2017-11-28T04:22:58.017Z,2.72
2017-11-28T04:25:26.804Z,2.33
2017-11-28T04:27:55.588Z,2.22
2017-11-28T04:30:24.408Z,4.32
2017-11-28T04:32:53.188Z,3.58
2017-11-28T04:35:21.957Z,2.67
2017-11-28T04:37:50.773Z,2.47
2017-11-28T04:40:19.563Z,3.08
2017-11-28T04:42:48.326Z,2.90
2017-11-28T04:45:17.155Z,3.35
2017-11-28T04:47:45.944Z,4.15
2017-11-28T04:50:14.740Z,4.25
2017-11-28T04:52:43.558Z,2.35
2017-11-28T04:55:13.108Z,2.50
2017-11-28T04:57:41.870Z,2.35
2017-11-28T05:00:10.681Z,1.95
2017-11-28T05:02:39.522Z,2.87
2017-11-28T05:05:08.313Z,3.00
2017-11-28T05:07:36.937Z,2.70
2017-11-28T05:10:05.701Z,2.20
2017-11-28T05:12:35.230Z,1.70
2017-11-28T05:15:04.076Z,2.45
2017-11-28T05:17:32.843Z,3.05
2017-11-28T05:20:01.645Z,1.90
2017-11-28T05:22:30.451Z,1.55
2017-11-28T05:24:59.995Z,1.73
2017-11-28T05:27:29.323Z,2.53
2017-11-28T05:29:58.641Z,2.05
2017-11-28T05:32:27.415Z,2.37
2017-11-28T05:34:56.354Z,3.12
2017-11-28T05:37:26.072Z,1.95
2017-11-28T05:39:54.862Z,2.62
2017-11-28T05:42:23.631Z,2.03
2017-11-28T05:44:53.195Z,2.78
2017-11-28T05:47:22.026Z,2.95
2017-11-28T05:49:51.577Z,3.03
2017-11-28T05:52:20.376Z,2.28
2017-11-28T05:54:49.199Z,1.92
2017-11-28T05:57:18.032Z,2.10
2017-11-28T05:59:46.987Z,2.85
2017-11-28T06:02:15.873Z,3.42
2017-11-28T06:04:44.664Z,2.55
2017-11-28T06:07:13.460Z,4.30
2017-11-28T06:09:42.353Z,3.05
2017-11-28T06:12:11.161Z,3.55
2017-11-28T06:14:39.962Z,3.15
2017-11-28T06:17:08.772Z,1.87
2017-11-28T06:19:37.560Z,2.40
2017-11-28T06:22:06.347Z,2.25
2017-11-28T06:24:35.165Z,3.05
2017-11-28T06:27:03.975Z,2.50
2017-11-28T06:29:32.571Z,2.90
2017-11-28T06:32:01.640Z,2.62
2017-11-28T06:34:31.249Z,2.28
2017-11-28T06:37:00.841Z,4.57
2017-11-28T06:39:40.301Z,2.33
2017-11-28T06:42:26.783Z,1.45
2017-11-28T06:44:56.042Z,2.08
2017-11-28T06:47:24.856Z,3.28
2017-11-28T06:49:53.679Z,2.65
2017-11-28T06:52:22.446Z,2.33
2017-11-28T06:54:51.224Z,2.75
2017-11-28T06:57:20.051Z,2.55
2017-11-28T07:00:04.684Z,3.15
2017-11-28T07:02:35.417Z,1.98
2017-11-28T07:05:04.199Z,3.28
2017-11-28T07:07:33.166Z,3.33
2017-11-28T07:10:01.977Z,2.50
2017-11-28T07:12:30.970Z,2.55
2017-11-28T07:14:59.770Z,2.50
2017-11-28T07:17:28.804Z,2.50
2017-11-28T07:19:58.369Z,2.78
2017-11-28T07:22:27.171Z,2.55
2017-11-28T07:24:56.139Z,2.50
2017-11-28T07:27:24.923Z,2.62
2017-11-28T07:29:53.733Z,3.95
2017-11-28T07:32:22.720Z,3.58
2017-11-28T07:34:51.631Z,2.28
2017-11-28T07:37:20.420Z,2.65
2017-11-28T07:39:50.175Z,4.05
2017-11-28T07:42:18.958Z,2.58
2017-11-28T07:44:47.737Z,2.40
2017-11-28T07:47:16.736Z,2.17
2017-11-28T07:49:45.529Z,2.62
2017-11-28T07:52:14.292Z,3.15
2017-11-28T07:54:44.052Z,3.70
2017-11-28T07:57:12.857Z,4.45
2017-11-28T07:59:41.633Z,3.17
2017-11-28T08:02:10.820Z,6.07
2017-11-28T08:04:39.632Z,2.47
2017-11-28T08:07:09.364Z,3.42
2017-11-28T08:09:38.928Z,3.50
2017-11-28T08:12:07.705Z,5.70
2017-11-28T08:14:36.489Z,3.33
2017-11-28T08:17:05.532Z,4.82
2017-11-28T08:19:34.718Z,2.90
2017-11-28T08:22:04.326Z,3.50
2017-11-28T08:24:33.697Z,2.72
2017-11-28T08:27:04.413Z,3.22
2017-11-28T08:29:33.046Z,3.50
2017-11-28T08:32:01.628Z,3.92
2017-11-28T08:34:31.189Z,2.95
2017-11-28T08:37:00.596Z,4.80
2017-11-28T08:39:29.386Z,2.60
2017-11-28T08:41:58.192Z,3.70
2017-11-28T08:44:27.603Z,2.62
2017-11-28T08:46:56.960Z,2.92
2017-11-28T08:49:25.564Z,3.85
2017-11-28T08:51:54.175Z,2.20
2017-11-28T08:54:22.976Z,17.77
2017-11-28T08:56:51.759Z,12.27
2017-11-28T08:59:21.527Z,2.85
2017-11-28T09:01:50.528Z,4.05
2017-11-28T09:04:19.303Z,2.17
2017-11-28T09:06:48.155Z,1.95
2017-11-28T09:09:17.708Z,2.85
2017-11-28T09:11:46.472Z,3.50
2017-11-28T09:14:15.488Z,2.50
2017-11-28T09:16:44.455Z,2.45
2017-11-28T09:19:13.228Z,2.00
2017-11-28T09:21:43.014Z,2.58
2017-11-28T09:24:11.815Z,1.65
2017-11-28T09:26:40.581Z,2.40
2017-11-28T09:29:09.612Z,2.10
2017-11-28T09:31:39.175Z,2.33
2017-11-28T09:34:08.136Z,3.50
2017-11-28T09:36:37.168Z,4.55
2017-11-28T09:39:06.784Z,1.65
2017-11-28T09:41:35.744Z,3.35
2017-11-28T09:44:05.547Z,1.40
2017-11-28T09:46:34.518Z,1.92
2017-11-28T09:49:03.527Z,4.18
2017-11-28T09:51:32.288Z,4.03
2017-11-28T09:54:01.060Z,2.70
2017-11-28T09:56:30.400Z,1.83
2017-11-28T09:58:59.691Z,5.90
2017-11-28T10:01:28.899Z,2.03
2017-11-28T10:03:58.423Z,3.03
2017-11-28T10:06:27.719Z,2.53
2017-11-28T10:08:57.059Z,3.17
2017-11-28T10:11:26.369Z,1.80
2017-11-28T10:13:55.471Z,2.22
2017-11-28T10:16:24.478Z,2.55
2017-11-28T10:18:53.463Z,1.73
2017-11-28T10:21:23.595Z,1.70
2017-11-28T10:23:52.942Z,3.20
2017-11-28T10:26:22.800Z,3.72
2017-11-28T10:28:52.520Z,3.40
2017-11-28T10:31:23.218Z,3.85
2017-11-28T10:33:53.340Z,5.15
2017-11-28T10:36:23.084Z,3.78
2017-11-28T10:38:51.860Z,3.60
2017-11-28T10:41:20.875Z,3.95
2017-11-28T10:43:49.838Z,3.95
2017-11-28T10:46:18.822Z,4.25
2017-11-28T10:48:47.888Z,2.92
2017-11-28T10:51:17.177Z,2.45
2017-11-28T10:53:46.483Z,3.03
2017-11-28T10:56:15.492Z,2.00
2017-11-28T10:58:44.464Z,1.95
2017-11-28T11:01:13.910Z,1.58
2017-11-28T11:03:43.553Z,2.90
2017-11-28T11:06:12.332Z,2.75
2017-11-28T11:08:42.304Z,1.90
2017-11-28T11:11:11.641Z,2.40
2017-11-28T11:13:40.949Z,2.25
2017-11-28T11:16:09.956Z,2.72
2017-11-28T11:18:38.932Z,2.85
2017-11-28T11:21:09.156Z,1.42
2017-11-28T11:23:38.841Z,1.15
2017-11-28T11:26:07.913Z,2.90
2017-11-28T11:28:36.966Z,2.08
2017-11-28T11:31:05.948Z,1.90
2017-11-28T11:33:34.920Z,2.60
2017-11-28T11:36:04.681Z,4.35
2017-11-28T11:38:33.657Z,2.40
2017-11-28T11:41:02.957Z,1.75
2017-11-28T11:43:32.280Z,1.30
2017-11-28T11:46:01.302Z,1.90
2017-11-28T11:48:30.279Z,1.95
2017-11-28T11:51:00.005Z,1.62
2017-11-28T11:53:29.028Z,3.75
2017-11-28T11:55:58.355Z,2.30
2017-11-28T11:58:27.987Z,2.45
2017-11-28T12:00:57.908Z,4.30
2017-11-28T12:03:27.638Z,1.83
2017-11-28T12:05:57.738Z,1.90
2017-11-28T12:08:27.335Z,3.78
2017-11-28T12:10:56.643Z,2.30
2017-11-28T12:13:25.632Z,1.52
2017-11-28T12:15:54.628Z,1.60
2017-11-28T12:18:23.607Z,3.40
2017-11-28T12:20:53.299Z,2.10
2017-11-28T12:23:22.276Z,2.35
2017-11-28T12:25:51.257Z,2.03
2017-11-28T12:28:20.281Z,1.67
2017-11-28T12:30:49.594Z,2.08
2017-11-28T12:33:18.549Z,1.75
2017-11-28T12:35:47.578Z,3.78
2017-11-28T12:38:17.226Z,4.25
2017-11-28T12:40:46.520Z,3.45
2017-11-28T12:43:15.547Z,4.28
2017-11-28T12:45:44.548Z,1.70
2017-11-28T12:48:13.652Z,4.37
2017-11-28T12:50:43.292Z,3.65
2017-11-28T12:53:12.419Z,2.25
2017-11-28T12:55:41.733Z,2.85
2017-11-28T12:58:10.727Z,2.28
2017-11-28T13:00:40.065Z,3.05
2017-11-28T13:03:09.379Z,4.72
2017-11-28T13:05:39.502Z,1.80
2017-11-28T13:08:09.240Z,3.47
2017-11-28T13:10:38.208Z,2.45
2017-11-28T13:13:08.319Z,1.87
2017-11-28T13:15:38.067Z,1.90
2017-11-28T13:18:07.180Z,2.03
2017-11-28T13:20:36.179Z,1.85
2017-11-28T13:23:05.153Z,3.00
2017-11-28T13:25:34.143Z,3.37
2017-11-28T13:28:03.155Z,3.22
2017-11-28T13:30:32.139Z,5.03
2017-11-28T13:33:00.907Z,4.10
2017-11-28T13:35:30.588Z,1.62
2017-11-28T13:37:59.904Z,2.40
2017-11-28T13:40:30.016Z,2.90
2017-11-28T13:42:59.309Z,13.65
2017-11-28T13:45:28.104Z,2.70
2017-11-28T13:47:57.882Z,3.60
2017-11-28T13:50:26.840Z,5.43
2017-11-28T13:52:55.982Z,3.22
2017-11-28T13:55:24.970Z,4.45
2017-11-28T13:57:54.450Z,3.00
2017-11-28T14:00:23.767Z,3.20
2017-11-28T14:02:53.063Z,1.85
2017-11-28T14:05:22.028Z,2.97
2017-11-28T14:07:51.374Z,2.60
2017-11-28T14:10:21.015Z,1.95
2017-11-28T14:12:51.272Z,3.62
2017-11-28T14:15:20.708Z,2.35
2017-11-28T14:17:49.502Z,3.05
2017-11-28T14:20:35.470Z,2.70
2017-11-28T14:23:09.906Z,3.08
2017-11-28T14:25:45.292Z,1.62
2017-11-28T14:28:13.880Z,2.55
2017-11-28T14:33:44.675Z,1.23
2017-11-28T14:36:14.299Z,5.62
2017-11-28T14:38:43.687Z,5.60
2017-11-28T14:41:14.981Z,3.45
2017-11-28T14:43:45.216Z,3.17
2017-11-28T14:46:14.292Z,2.95
2017-11-28T14:48:43.640Z,2.25
2017-11-28T14:51:17.970Z,2.90
2017-11-28T14:53:52.459Z,3.62
2017-11-28T14:56:21.669Z,3.10
2017-11-28T15:01:56.450Z,3.17
2017-11-28T15:04:30.910Z,2.67
2017-11-28T15:07:06.376Z,2.90
2017-11-28T15:09:40.603Z,4.28
2017-11-28T15:12:14.772Z,1.77
2017-11-28T15:14:49.201Z,5.90
2017-11-28T15:17:18.588Z,3.10
2017-11-28T15:19:48.881Z,1.95
2017-11-28T15:22:22.084Z,3.10
2017-11-28T15:27:46.085Z,3.60
2017-11-28T15:30:14.738Z,4.95
2017-11-28T15:32:43.317Z,3.40
2017-11-28T15:35:12.095Z,3.10
2017-11-28T15:37:40.904Z,2.33
2017-11-28T15:40:09.884Z,3.60
2017-11-28T15:42:38.692Z,4.50
2017-11-28T15:45:07.836Z,4.03
2017-11-28T15:47:37.205Z,3.20
2017-11-28T15:50:06.192Z,8.55
2017-11-28T15:52:35.199Z,3.28
2017-11-28T15:55:04.353Z,4.40
2017-11-28T15:57:33.456Z,4.90
2017-11-28T16:00:02.768Z,5.45
2017-11-28T16:02:31.605Z,4.75
2017-11-28T16:05:01.081Z,7.68
2017-11-28T16:07:30.072Z,4.82
2017-11-28T16:09:59.091Z,4.07
2017-11-28T16:12:27.876Z,5.28
2017-11-28T16:14:56.875Z,4.12
2017-11-28T16:17:26.231Z,3.60
2017-11-28T16:19:55.211Z,4.37
2017-11-28T16:22:24.203Z,8.20
2017-11-28T16:24:53.984Z,5.05
2017-11-28T16:27:22.972Z,3.05
2017-11-28T16:29:52.263Z,8.43
2017-11-28T16:32:21.297Z,9.07
2017-11-28T16:34:51.055Z,3.10
2017-11-28T16:37:20.038Z,2.90
2017-11-28T16:39:49.107Z,2.40
2017-11-28T16:42:18.974Z,3.05
2017-11-28T16:44:47.943Z,5.30
2017-11-28T16:47:16.963Z,5.45
2017-11-28T16:49:45.785Z,3.85
2017-11-28T16:52:15.874Z,5.05
2017-11-28T16:54:44.888Z,4.20
2017-11-28T16:57:13.911Z,3.70
2017-11-28T16:59:42.954Z,3.50
2017-11-28T17:02:12.061Z,4.10
2017-11-28T17:04:41.040Z,3.65
2017-11-28T17:07:09.620Z,6.05
2017-11-28T17:09:38.474Z,4.57
2017-11-28T17:12:07.432Z,4.95
2017-11-28T17:14:36.237Z,4.50
2017-11-28T17:17:06.482Z,4.37
2017-11-28T17:19:35.596Z,6.80
2017-11-28T17:22:04.596Z,6.22
2017-11-28T17:24:34.111Z,4.72
2017-11-28T17:27:03.108Z,6.22
2017-11-28T17:29:32.409Z,5.03
2017-11-28T17:32:01.441Z,4.15
2017-11-28T17:34:31.520Z,3.12
2017-11-28T17:37:00.511Z,5.20
2017-11-28T17:39:29.487Z,4.00
2017-11-28T17:41:58.468Z,3.67
2017-11-28T17:44:27.839Z,5.03
2017-11-28T17:46:57.140Z,4.20
2017-11-28T17:49:26.900Z,2.87
2017-11-28T17:51:56.236Z,4.60
2017-11-28T17:54:25.187Z,7.55
2017-11-28T17:56:54.283Z,4.45
2017-11-28T17:59:23.393Z,6.10
2017-11-28T18:01:52.399Z,6.82
2017-11-28T18:04:21.380Z,4.05
2017-11-28T18:06:50.719Z,3.78
2017-11-28T18:09:19.705Z,9.45
2017-11-28T18:11:48.716Z,5.70
2017-11-28T18:14:18.261Z,6.72
2017-11-28T18:16:47.224Z,3.25
2017-11-28T18:19:17.311Z,3.78
2017-11-28T18:21:46.371Z,4.97
2017-11-28T18:24:15.335Z,9.95
2017-11-28T18:26:44.628Z,4.35
2017-11-28T18:29:13.661Z,4.20
2017-11-28T18:31:42.448Z,3.35
2017-11-28T18:34:11.748Z,5.70
2017-11-28T18:36:40.771Z,6.55
2017-11-28T18:39:10.068Z,5.70
2017-11-28T18:41:39.377Z,5.43
2017-11-28T18:44:08.708Z,4.60
2017-11-28T18:46:39.158Z,4.30
2017-11-28T18:49:08.268Z,3.60
2017-11-28T18:51:37.638Z,4.22
2017-11-28T18:54:07.399Z,5.68
2017-11-28T18:56:36.423Z,5.72
2017-11-28T18:59:05.741Z,4.72
2017-11-28T19:01:34.714Z,3.50
2017-11-28T19:04:03.725Z,3.92
2017-11-28T19:06:33.680Z,7.20
2017-11-28T19:09:02.652Z,5.45
2017-11-28T19:11:31.647Z,5.07
2017-11-28T19:14:00.624Z,5.62
2017-11-28T19:16:30.469Z,3.80
2017-11-28T19:19:00.182Z,5.95
2017-11-28T19:21:29.162Z,4.62
2017-11-28T19:23:58.132Z,4.25
2017-11-28T19:26:28.223Z,6.75
2017-11-28T19:28:57.231Z,6.50
2017-11-28T19:31:26.207Z,6.18
2017-11-28T19:33:55.508Z,5.60
2017-11-28T19:36:24.828Z,7.10
2017-11-28T19:38:53.796Z,6.03
2017-11-28T19:41:22.908Z,6.12
2017-11-28T19:43:51.913Z,4.72
2017-11-28T19:46:20.917Z,5.37
2017-11-28T19:48:50.653Z,7.25
2017-11-28T19:51:19.676Z,3.40
2017-11-28T19:53:48.478Z,6.40
2017-11-28T19:56:17.503Z,9.48
2017-11-28T19:58:46.843Z,7.57
2017-11-28T20:01:16.845Z,4.62
2017-11-28T20:03:46.376Z,6.72
2017-11-28T20:06:16.247Z,3.65
2017-11-28T20:08:46.392Z,7.20
2017-11-28T20:11:16.135Z,5.78
2017-11-28T20:13:45.530Z,7.43
2017-11-28T20:16:15.168Z,4.90
2017-11-28T20:18:43.976Z,4.45
2017-11-28T20:21:13.581Z,9.23
2017-11-28T20:23:42.352Z,3.87
2017-11-28T20:26:12.006Z,6.87
2017-11-28T20:28:41.033Z,5.87
2017-11-28T20:31:10.059Z,6.90
2017-11-28T20:33:39.042Z,5.57
2017-11-28T20:36:08.077Z,12.05
2017-11-28T20:38:36.856Z,4.25
2017-11-28T20:41:06.589Z,4.72
2017-11-28T20:43:35.956Z,5.95
2017-11-28T20:46:04.796Z,10.00
2017-11-28T20:48:34.163Z,5.22
2017-11-28T20:51:03.192Z,9.80
2017-11-28T20:53:32.198Z,6.00
2017-11-28T20:56:01.163Z,9.52
2017-11-28T20:58:30.648Z,6.70
2017-11-28T21:01:00.407Z,11.43
2017-11-28T21:03:29.771Z,8.93
2017-11-28T21:05:59.081Z,13.82
2017-11-28T21:08:28.376Z,10.13
2017-11-28T21:10:57.843Z,11.50
2017-11-28T21:13:27.152Z,11.82
2017-11-28T21:15:56.933Z,3.87
2017-11-28T21:18:25.907Z,5.62
2017-11-28T21:20:55.211Z,8.98
2017-11-28T21:23:24.571Z,5.97
2017-11-28T21:25:53.525Z,9.68
2017-11-28T21:28:22.831Z,6.10
2017-11-28T21:30:52.191Z,5.35
2017-11-28T21:33:21.165Z,8.77
2017-11-28T21:35:50.508Z,7.60
2017-11-28T21:38:19.503Z,8.65
2017-11-28T21:40:48.485Z,5.75
2017-11-28T21:43:17.460Z,11.02
2017-11-28T21:45:46.814Z,7.10
2017-11-28T21:48:16.139Z,6.37
2017-11-28T21:50:45.147Z,7.32
2017-11-28T21:53:14.920Z,4.82
2017-11-28T21:55:43.936Z,6.30
2017-11-28T21:58:12.909Z,5.53
2017-11-28T22:00:42.268Z,5.97
2017-11-28T22:03:11.709Z,9.18
2017-11-28T22:05:41.656Z,10.13
2017-11-28T22:08:11.399Z,7.07
2017-11-28T22:10:40.387Z,6.60
2017-11-28T22:13:09.398Z,7.03
2017-11-28T22:15:38.736Z,4.82
2017-11-28T22:18:08.048Z,7.70
2017-11-28T22:20:37.051Z,5.28
2017-11-28T22:23:06.788Z,6.10
2017-11-28T22:25:35.800Z,6.80
2017-11-28T22:28:04.778Z,8.95
2017-11-28T22:30:33.755Z,10.10
2017-11-28T22:33:03.094Z,6.50
2017-11-28T22:35:32.071Z,6.85
2017-11-28T22:38:01.373Z,13.38
2017-11-28T22:40:30.712Z,7.22
2017-11-28T22:42:59.987Z,8.57
2017-11-28T22:45:28.990Z,7.68
2017-11-28T22:47:58.719Z,9.25
2017-11-28T22:50:27.704Z,9.90
2017-11-28T22:52:56.679Z,6.60
2017-11-28T22:55:25.683Z,8.40
2017-11-28T22:57:54.681Z,10.32
2017-11-28T23:00:24.321Z,6.82
2017-11-28T23:02:54.401Z,9.15
2017-11-28T23:05:23.715Z,6.93
2017-11-28T23:07:53.032Z,5.80
2017-11-28T23:10:23.159Z,9.07
2017-11-28T23:12:52.915Z,8.38
2017-11-28T23:15:21.886Z,8.65
2017-11-28T23:17:51.453Z,9.60
2017-11-28T23:20:20.649Z,8.93
2017-11-28T23:22:49.656Z,9.88
2017-11-28T23:25:18.635Z,5.68
2017-11-28T23:27:48.263Z,7.35
2017-11-28T23:30:17.592Z,10.73
2017-11-28T23:32:47.319Z,8.98
2017-11-28T23:35:16.336Z,20.37
2017-11-28T23:37:45.319Z,11.65
2017-11-28T23:40:14.435Z,9.55
2017-11-28T23:42:44.173Z,10.10
2017-11-28T23:45:13.820Z,12.02
2017-11-28T23:47:42.599Z,8.93
2017-11-28T23:50:12.764Z,12.75
2017-11-28T23:52:42.086Z,11.65
2017-11-28T23:55:11.431Z,11.10
2017-11-28T23:57:41.145Z,8.85
